Time;durP1;ratioP1;P1;durP2;ratioP2;P2;SDS_P1;SDS_P2;PMS_P1;PMS_P2;Temp;Humidity;BMP_temperature;BMP_pressure;BME280_temperature;BME280_humidity;BME280_pressure;Samples;Min_cycle;Max_cycle;Signal;HPM_P1;HPM_P2
2023/05/10 00:02:36;;;;;;;0.20;0.10;;;;;;;;;;4953254;28;20035;-85
2023/05/10 00:05:43;;;;;;;0.20;0.10;;;;;;;;;;4946616;28;20431;-85
2023/05/10 00:08:27;;;;;;;0.30;0.25;;;;;;;;;;4939889;28;20042;-87
2023/05/10 00:10:56;;;;;;;0.20;0.00;;;;;;;;;;4959284;28;20049;-85
2023/05/10 00:13:25;;;;;;;0.38;0.30;;;;;;;;;;4944906;28;20042;-86
2023/05/10 00:16:05;;;;;;;0.20;0.10;;;;;;;;;;4949737;28;20528;-89
2023/05/10 00:18:49;;;;;;;0.20;0.10;;;;;;;;;;4958166;28;20054;-88
2023/05/10 00:21:18;;;;;;;0.20;0.10;;;;;;;;;;4952910;28;20058;-89
2023/05/10 00:24:00;;;;;;;;;;;;;;;;;;;;;
2023/05/10 00:27:03;;;;;;;0.20;0.10;;;;;;;;;;4861387;29;20194;-87
2023/05/10 00:29:47;;;;;;;;;;;;;;;;;;4865547;29;20045;-91
2023/05/10 00:32:19;;;;;;;0.20;0.10;;;;;;;;;;4882748;29;19930;-88
2023/05/10 00:35:37;;;;;;;0.20;0.10;;;;;;;;;;4920884;28;20735;-91
2023/05/10 00:41:33;;;;;;;0.20;0.10;;;;;;;;;;4960937;28;20042;-86
2023/05/10 00:44:43;;;;;;;0.20;0.20;;;;;;;;;;4936074;28;20732;-88
2023/05/10 00:50:46;;;;;;;0.20;0.10;;;;;;;;;;4955533;28;20477;-89
2023/05/10 00:53:56;;;;;;;0.20;0.20;;;;;;;;;;4860242;29;20060;-87
2023/05/10 00:56:24;;;;;;;0.20;0.03;;;;;;;;;;4910928;29;20055;-85
2023/05/10 00:59:32;;;;;;;0.40;0.40;;;;;;;;;;4933779;28;20054;-88
2023/05/10 01:01:59;;;;;;;0.20;0.10;;;;;;;;;;4931699;28;20051;-86
2023/05/10 01:05:28;;;;;;;;;;;;;;;;;;;;;
2023/05/10 01:08:28;;;;;;;0.20;0.10;;;;;;;;;;4900495;29;20039;-85
2023/05/10 01:14:21;;;;;;;0.20;0.10;;;;;;;;;;4952656;28;20521;-87
2023/05/10 01:33:22;;;;;;;0.63;0.20;;;;;;;;;;4966460;28;20086;-85
2023/05/10 01:40:27;;;;;;;0.20;0.03;;;;;;;;;;4823137;29;20048;-86
2023/05/10 01:43:25;;;;;;;0.20;0.10;;;;;;;;;;4797767;29;20066;-89
2023/05/10 01:46:36;;;;;;;;;;;;;;;;;;;;;
2023/05/10 01:52:45;;;;;;;0.20;0.10;;;;;;;;;;4778678;29;20050;-86
2023/05/10 01:55:17;;;;;;;;;;;;;;;;;;4780845;29;20307;-86
2023/05/10 02:14:30;;;;;;;;;;;;;;;;;;;;;
2023/05/10 02:17:53;;;;;;;;;;;;;;;;;;;;;
2023/05/10 02:20:27;;;;;;;0.20;0.10;;;;;;;;;;4902135;29;20122;-86
2023/05/10 02:22:56;;;;;;;0.20;0.10;;;;;;;;;;4905850;29;20051;-84
2023/05/10 02:25:46;;;;;;;0.20;0.10;;;;;;;;;;4910078;29;20035;-86
2023/05/10 02:28:22;;;;;;;0.20;0.10;;;;;;;;;;4904496;28;21040;-89
2023/05/10 02:31:11;;;;;;;0.30;0.30;;;;;;;;;;4929091;28;20123;-86
2023/05/10 02:34:07;;;;;;;0.20;0.20;;;;;;;;;;4948710;28;20035;-88
2023/05/10 02:37:18;;;;;;;0.30;0.20;;;;;;;;;;4908208;28;20049;-86
2023/05/10 02:43:18;;;;;;;0.20;0.10;;;;;;;;;;4907587;29;20513;-87
2023/05/10 02:46:16;;;;;;;0.20;0.00;;;;;;;;;;4915905;28;20660;-86
2023/05/10 02:49:27;;;;;;;0.22;0.13;;;;;;;;;;4931720;29;20050;-87
2023/05/10 03:08:31;;;;;;;0.20;0.10;;;;;;;;;;4826181;29;20148;-89
2023/05/10 03:11:37;;;;;;;0.20;0.15;;;;;;;;;;4881738;29;20094;-85
2023/05/10 03:14:47;;;;;;;0.20;0.10;;;;;;;;;;4889098;29;20051;-85
2023/05/10 03:17:23;;;;;;;0.20;0.10;;;;;;;;;;4872366;29;20073;-86
2023/05/10 03:20:17;;;;;;;0.20;0.08;;;;;;;;;;4922795;29;20055;-86
2023/05/10 03:22:46;;;;;;;0.65;0.30;;;;;;;;;;4930359;28;20074;-86
2023/05/10 03:25:44;;;;;;;0.20;0.10;;;;;;;;;;4948151;28;20070;-84
2023/05/10 03:28:40;;;;;;;0.20;0.10;;;;;;;;;;4943459;28;20049;-85
2023/05/10 03:31:10;;;;;;;0.20;0.10;;;;;;;;;;4971408;28;20059;-86
2023/05/10 03:34:14;;;;;;;0.20;0.08;;;;;;;;;;4932687;28;20051;-85
2023/05/10 03:40:25;;;;;;;0.20;0.10;;;;;;;;;;4968636;28;20078;-88
2023/05/10 03:43:18;;;;;;;0.20;0.10;;;;;;;;;;4909384;29;20508;-87
2023/05/10 03:46:24;;;;;;;0.63;0.63;;;;;;;;;;4936052;28;20047;-87
2023/05/10 03:56:07;;;;;;;0.30;0.20;;;;;;;;;;4753868;29;20043;-86
2023/05/10 03:58:51;;;;;;;6.63;1.13;;;;;;;;;;4855690;29;20538;-85
2023/05/10 04:04:30;;;;;;;0.20;0.03;;;;;;;;;;4922274;28;20034;-86
2023/05/10 04:06:59;;;;;;;0.20;0.10;;;;;;;;;;4930030;28;20086;-86
2023/05/10 04:12:50;;;;;;;0.20;0.05;;;;;;;;;;4925528;28;20299;-88
2023/05/10 04:15:17;;;;;;;0.20;0.08;;;;;;;;;;4928858;28;20141;-86
2023/05/10 04:20:53;;;;;;;0.20;0.10;;;;;;;;;;4942962;28;20047;-87
2023/05/10 04:23:38;;;;;;;0.20;0.10;;;;;;;;;;4926459;28;20558;-90
2023/05/10 04:26:08;;;;;;;0.20;0.10;;;;;;;;;;4927921;28;20427;-90
2023/05/10 04:31:10;;;;;;;0.20;0.00;;;;;;;;;;4976292;28;20043;-87
2023/05/10 04:36:35;;;;;;;0.20;0.00;;;;;;;;;;4933803;28;20121;-90
2023/05/10 04:39:07;;;;;;;0.20;0.10;;;;;;;;;;4974937;28;20088;-86
2023/05/10 04:42:11;;;;;;;0.20;0.10;;;;;;;;;;4961328;28;20046;-90
2023/05/10 04:44:37;;;;;;;0.20;0.10;;;;;;;;;;4965999;28;20108;-84
2023/05/10 04:47:16;;;;;;;0.20;0.10;;;;;;;;;;4969079;28;20062;-90
2023/05/10 04:50:08;;;;;;;0.25;0.20;;;;;;;;;;4964812;28;20043;-90
2023/05/10 04:52:55;;;;;;;0.20;0.10;;;;;;;;;;4967407;28;20508;-86
2023/05/10 04:55:50;;;;;;;0.20;0.08;;;;;;;;;;4996328;28;20050;-87
2023/05/10 05:01:12;;;;;;;0.20;0.10;;;;;;;;;;4977549;28;20590;-85
2023/05/10 05:04:00;;;;;;;;;;;;;;;;;;;;;
2023/05/10 05:06:30;;;;;;;0.20;0.20;;;;;;;;;;4970033;28;20086;-86
2023/05/10 05:08:56;;;;;;;0.68;0.57;;;;;;;;;;4997742;28;20042;-88
2023/05/10 05:11:28;;;;;;;0.20;0.05;;;;;;;;;;4993369;28;20034;-87
2023/05/10 05:14:02;;;;;;;0.32;0.32;;;;;;;;;;4979315;28;20041;-89
2023/05/10 05:16:43;;;;;;;0.30;0.30;;;;;;;;;;4976629;28;20077;-90
2023/05/10 05:22:10;;;;;;;0.68;0.28;;;;;;;;;;4977280;28;20043;-86
2023/05/10 05:25:05;;;;;;;0.20;0.10;;;;;;;;;;4968449;28;20046;-92
2023/05/10 05:27:35;;;;;;;0.20;0.10;;;;;;;;;;4950448;28;20125;-87
2023/05/10 05:30:04;;;;;;;0.30;0.25;;;;;;;;;;4964632;28;20130;-89
2023/05/10 05:32:40;;;;;;;0.20;0.10;;;;;;;;;;4968078;28;20050;-85
2023/05/10 05:35:24;;;;;;;0.28;0.17;;;;;;;;;;4985102;28;20060;-88
2023/05/10 05:37:50;;;;;;;0.20;0.10;;;;;;;;;;4963348;28;20109;-85
2023/05/10 05:40:28;;;;;;;0.20;0.10;;;;;;;;;;4993298;28;20101;-91
2023/05/10 05:42:55;;;;;;;0.20;0.03;;;;;;;;;;4980619;28;20046;-89
2023/05/10 05:45:32;;;;;;;0.45;0.45;;;;;;;;;;4971921;28;20038;-87
2023/05/10 05:48:01;;;;;;;0.20;0.10;;;;;;;;;;4966514;28;20049;-87
2023/05/10 05:50:54;;;;;;;0.20;0.10;;;;;;;;;;4968771;28;20058;-86
2023/05/10 05:53:26;;;;;;;0.32;0.32;;;;;;;;;;4976622;28;20054;-85
2023/05/10 05:59:23;;;;;;;0.20;0.20;;;;;;;;;;4974617;28;20050;-86
2023/05/10 06:02:09;;;;;;;0.20;0.10;;;;;;;;;;4976152;28;20121;-85
2023/05/10 06:04:56;;;;;;;0.20;0.10;;;;;;;;;;4961198;28;20050;-86
2023/05/10 06:07:30;;;;;;;0.95;0.43;;;;;;;;;;4975515;28;20495;-85
2023/05/10 06:10:05;;;;;;;0.30;0.30;;;;;;;;;;4979808;28;20062;-87
2023/05/10 06:12:43;;;;;;;0.30;0.10;;;;;;;;;;4965531;28;20035;-88
2023/05/10 06:18:16;;;;;;;0.25;0.20;;;;;;;;;;4957769;28;20070;-85
2023/05/10 06:20:48;;;;;;;0.20;0.10;;;;;;;;;;4971260;28;20576;-88
2023/05/10 06:23:53;;;;;;;;;;;;;;;;;;;;;
2023/05/10 06:26:50;;;;;;;0.30;0.20;;;;;;;;;;4971559;28;20144;-86
2023/05/10 06:31:49;;;;;;;0.20;0.10;;;;;;;;;;4960976;28;20094;-87
2023/05/10 06:34:28;;;;;;;0.20;0.10;;;;;;;;;;4973296;28;20043;-85
2023/05/10 06:37:15;;;;;;;0.30;0.30;;;;;;;;;;4945861;28;20519;-85
2023/05/10 06:39:53;;;;;;;0.20;0.20;;;;;;;;;;4976707;28;20772;-89
2023/05/10 06:42:25;;;;;;;0.20;0.10;;;;;;;;;;4931615;29;20090;-87
2023/05/10 06:45:09;;;;;;;0.20;0.20;;;;;;;;;;4940955;28;20056;-89
2023/05/10 06:48:05;;;;;;;0.20;0.10;;;;;;;;;;4949052;28;20055;-87
2023/05/10 06:51:21;;;;;;;0.20;0.10;;;;;;;;;;4923446;29;20106;-84
2023/05/10 06:57:17;;;;;;;0.20;0.10;;;;;;;;;;4866796;29;20041;-88
2023/05/10 07:00:47;;;;;;;0.20;0.10;;;;;;;;;;4852463;29;20049;-88
2023/05/10 07:07:02;;;;;;;0.20;0.10;;;;;;;;;;4853620;29;19920;-87
2023/05/10 07:10:00;;;;;;;0.20;0.10;;;;;;;;;;5091807;23;20503;-89
2023/05/10 07:16:21;;;;;;;0.20;0.03;;;;;;;;;;4888534;29;20121;-87
2023/05/10 07:19:56;;;;;;;0.20;0.00;;;;;;;;;;4893649;29;20048;-85
2023/05/10 07:22:22;;;;;;;0.20;0.10;;;;;;;;;;4899858;28;20127;-86
2023/05/10 07:25:17;;;;;;;0.20;0.10;;;;;;;;;;4949251;28;20039;-87
2023/05/10 07:28:16;;;;;;;0.20;0.10;;;;;;;;;;4933589;28;20102;-83
2023/05/10 07:30:48;;;;;;;0.20;0.10;;;;;;;;;;4930540;28;20034;-88
2023/05/10 07:33:41;;;;;;;0.20;0.10;;;;;;;;;;4925389;28;20079;-87
2023/05/10 07:36:13;;;;;;;0.20;0.10;;;;;;;;;;4932573;28;20054;-86
2023/05/10 07:42:34;;;;;;;0.75;0.43;;;;;;;;;;4910089;28;20047;-92
2023/05/10 07:45:23;;;;;;;0.20;0.10;;;;;;;;;;4923518;28;20577;-89
2023/05/10 07:48:50;;;;;;;0.20;0.10;;;;;;;;;;4949861;28;20052;-90
2023/05/10 07:54:40;;;;;;;0.20;0.10;;;;;;;;;;4903766;29;20424;-85
2023/05/10 07:59:58;;;;;;;0.20;0.00;;;;;;;;;;4929729;28;20036;-86
2023/05/10 08:02:27;;;;;;;0.20;0.10;;;;;;;;;;4930997;28;20047;-87
2023/05/10 08:05:14;;;;;;;0.20;0.10;;;;;;;;;;4919257;28;20039;-90
2023/05/10 08:07:40;;;;;;;0.32;0.13;;;;;;;;;;4920652;28;20043;-86
2023/05/10 08:13:41;;;;;;;0.20;0.10;;;;;;;;;;4931758;28;20074;-85
2023/05/10 08:16:07;;;;;;;0.20;0.10;;;;;;;;;;4922901;28;20040;-84
2023/05/10 08:18:56;;;;;;;0.20;0.10;;;;;;;;;;4929250;28;20038;-87
2023/05/10 08:21:30;;;;;;;0.20;0.00;;;;;;;;;;4948972;28;20050;-86
2023/05/10 08:24:14;;;;;;;0.28;0.20;;;;;;;;;;4923625;28;20640;-86
2023/05/10 08:26:47;;;;;;;0.20;0.10;;;;;;;;;;4933497;28;20054;-88
2023/05/10 08:29:36;;;;;;;0.20;0.10;;;;;;;;;;4924507;28;20047;-87
2023/05/10 08:32:07;;;;;;;0.20;0.10;;;;;;;;;;4908548;28;20083;-86
2023/05/10 08:34:45;;;;;;;0.20;0.10;;;;;;;;;;4946532;28;20109;-85
2023/05/10 08:40:23;;;;;;;0.20;0.00;;;;;;;;;;4928455;28;20791;-87
2023/05/10 08:43:32;;;;;;;0.20;0.10;;;;;;;;;;4921429;28;20138;-84
2023/05/10 08:46:12;;;;;;;;;;;;;;;;;;;;;
2023/05/10 08:51:58;;;;;;;0.20;0.10;;;;;;;;;;4928644;28;20039;-88
2023/05/10 08:54:56;;;;;;;0.20;0.10;;;;;;;;;;4935022;28;20038;-91
2023/05/10 08:57:28;;;;;;;0.20;0.00;;;;;;;;;;4928799;28;20487;-89
2023/05/10 08:59:57;;;;;;;0.20;0.17;;;;;;;;;;4922853;28;20063;-90
2023/05/10 09:02:39;;;;;;;0.25;0.25;;;;;;;;;;4926935;28;20054;-89
2023/05/10 09:05:26;;;;;;;0.20;0.10;;;;;;;;;;4933404;28;20057;-88
2023/05/10 09:08:10;;;;;;;;;;;;;;;;;;;;;
2023/05/10 09:10:43;;;;;;;0.20;0.10;;;;;;;;;;4935183;28;20058;-88
2023/05/10 09:13:27;;;;;;;;;;;;;;;;;;4945397;28;20538;-89
2023/05/10 09:16:12;;;;;;;0.20;0.10;;;;;;;;;;4950523;28;19957;-90
2023/05/10 09:22:11;;;;;;;0.20;0.10;;;;;;;;;;4951038;28;20540;-87
2023/05/10 09:25:10;;;;;;;0.20;0.08;;;;;;;;;;4940653;28;20054;-91
2023/05/10 09:28:12;;;;;;;0.20;0.10;;;;;;;;;;4958194;28;20564;-86
2023/05/10 09:31:28;;;;;;;0.20;0.00;;;;;;;;;;4943491;28;20051;-88
2023/05/10 09:34:31;;;;;;;;;;;;;;;;;;;;;
2023/05/10 09:38:10;;;;;;;;;;;;;;;;;;;;;
2023/05/10 09:41:28;;;;;;;0.20;0.10;;;;;;;;;;4906155;29;20092;-87
2023/05/10 09:44:29;;;;;;;0.20;0.10;;;;;;;;;;4919381;29;20057;-85
2023/05/10 09:47:08;;;;;;;0.20;0.00;;;;;;;;;;4918878;29;20145;-87
2023/05/10 09:49:50;;;;;;;;;;;;;;;;;;;;;
2023/05/10 09:52:44;;;;;;;0.20;0.10;;;;;;;;;;4888056;29;20048;-89
2023/05/10 09:55:22;;;;;;;0.20;0.00;;;;;;;;;;4889216;29;20377;-87
2023/05/10 10:04:51;;;;;;;0.20;0.10;;;;;;;;;;4949423;28;20051;-87
2023/05/10 10:11:06;;;;;;;0.20;0.10;;;;;;;;;;4948559;28;20034;-90
2023/05/10 10:14:13;;;;;;;;;;;;;;;;;;;;;
2023/05/10 10:16:59;;;;;;;0.20;0.10;;;;;;;;;;4944762;28;20471;-87
2023/05/10 10:23:01;;;;;;;0.20;0.10;;;;;;;;;;4945630;28;20055;-87
2023/05/10 10:25:59;;;;;;;;;;;;;;;;;;;;;
2023/05/10 10:32:31;;;;;;;0.20;0.00;;;;;;;;;;4947852;28;20143;-87
2023/05/10 10:38:35;;;;;;;0.20;0.00;;;;;;;;;;4930283;28;20491;-85
2023/05/10 10:41:43;;;;;;;0.30;0.20;;;;;;;;;;4931934;28;20534;-86
2023/05/10 10:44:46;;;;;;;0.20;0.10;;;;;;;;;;4946591;28;20053;-87
2023/05/10 10:47:22;;;;;;;0.20;0.10;;;;;;;;;;4965181;28;20039;-86
2023/05/10 10:50:22;;;;;;;0.20;0.10;;;;;;;;;;4934237;28;20054;-84
2023/05/10 10:56:24;;;;;;;0.20;0.10;;;;;;;;;;4943645;28;20051;-83
2023/05/10 11:02:18;;;;;;;0.20;0.10;;;;;;;;;;4921798;29;20043;-85
2023/05/10 11:05:22;;;;;;;;;;;;;;;;;;;;;
2023/05/10 11:10:28;;;;;;;0.20;0.10;;;;;;;;;;4960581;28;20431;-83
2023/05/10 11:13:08;;;;;;;0.20;0.00;;;;;;;;;;4950024;28;20140;-84
2023/05/10 11:15:56;;;;;;;0.20;0.10;;;;;;;;;;4981569;28;20129;-85
2023/05/10 11:18:44;;;;;;;0.20;0.10;;;;;;;;;;4961838;28;20068;-86
2023/05/10 11:21:32;;;;;;;0.20;0.10;;;;;;;;;;4971532;28;20051;-86
2023/05/10 11:24:33;;;;;;;0.20;0.10;;;;;;;;;;4963424;28;20046;-84
2023/05/10 11:27:46;;;;;;;;;;;;;;;;;;;;;
2023/05/10 11:30:22;;;;;;;0.75;0.47;;;;;;;;;;4961216;28;20042;-83
2023/05/10 11:32:48;;;;;;;0.30;0.10;;;;;;;;;;4961373;28;20054;-83
2023/05/10 11:35:14;;;;;;;0.20;0.10;;;;;;;;;;4959826;28;20173;-84
2023/05/10 11:37:48;;;;;;;0.20;0.00;;;;;;;;;;4962230;28;20046;-83
2023/05/10 11:40:30;;;;;;;0.20;0.00;;;;;;;;;;4962009;28;20119;-86
2023/05/10 11:42:56;;;;;;;0.20;0.10;;;;;;;;;;4957564;28;20423;-85
2023/05/10 11:45:24;;;;;;;0.20;0.10;;;;;;;;;;4964299;28;20177;-84
2023/05/10 11:47:50;;;;;;;0.20;0.10;;;;;;;;;;4955522;28;22250;-84
2023/05/10 11:50:20;;;;;;;0.20;0.00;;;;;;;;;;4947272;28;20034;-83
2023/05/10 11:52:51;;;;;;;0.20;0.10;;;;;;;;;;4964565;28;20093;-81
2023/05/10 11:55:17;;;;;;;0.20;0.10;;;;;;;;;;4963242;28;20177;-82
2023/05/10 11:57:45;;;;;;;0.35;0.20;;;;;;;;;;4960216;28;20035;-84
2023/05/10 12:00:12;;;;;;;0.20;0.10;;;;;;;;;;4962392;28;20054;-82
2023/05/10 12:02:38;;;;;;;0.20;0.00;;;;;;;;;;4961153;28;20065;-83
2023/05/10 12:05:05;;;;;;;0.30;0.30;;;;;;;;;;4944161;28;20043;-84
2023/05/10 12:07:31;;;;;;;0.20;0.10;;;;;;;;;;4962620;28;20050;-83
2023/05/10 12:10:06;;;;;;;0.20;0.10;;;;;;;;;;4948887;28;20030;-85
2023/05/10 12:12:43;;;;;;;0.20;0.00;;;;;;;;;;4944010;28;20038;-85
2023/05/10 12:15:13;;;;;;;0.20;0.10;;;;;;;;;;4940537;28;20042;-85
2023/05/10 12:17:40;;;;;;;0.20;0.20;;;;;;;;;;4961962;28;20042;-83
2023/05/10 12:20:18;;;;;;;0.20;0.10;;;;;;;;;;4961641;28;20074;-84
2023/05/10 12:23:05;;;;;;;0.20;0.00;;;;;;;;;;4962745;28;20062;-88
2023/05/10 12:25:35;;;;;;;0.20;0.10;;;;;;;;;;4947864;28;20047;-85
2023/05/10 12:28:04;;;;;;;0.20;0.10;;;;;;;;;;4961672;28;20047;-83
2023/05/10 12:30:59;;;;;;;0.20;0.13;;;;;;;;;;4948331;28;20062;-85
2023/05/10 12:33:25;;;;;;;0.20;0.10;;;;;;;;;;4943011;28;20047;-85
2023/05/10 12:35:56;;;;;;;0.20;0.20;;;;;;;;;;4945036;28;20054;-84
2023/05/10 12:38:30;;;;;;;0.20;0.10;;;;;;;;;;4959401;28;20455;-86
2023/05/10 12:41:13;;;;;;;0.20;0.10;;;;;;;;;;4948210;28;20042;-89
2023/05/10 12:43:45;;;;;;;0.20;0.10;;;;;;;;;;4945406;28;20133;-87
2023/05/10 12:46:31;;;;;;;0.50;0.22;;;;;;;;;;4949647;28;20079;-88
2023/05/10 12:49:23;;;;;;;;;;;;;;;;;;;;;
2023/05/10 12:51:59;;;;;;;0.60;0.30;;;;;;;;;;4962286;28;20640;-88
2023/05/10 12:54:31;;;;;;;0.20;0.10;;;;;;;;;;4962096;28;20042;-87
2023/05/10 12:56:57;;;;;;;0.20;0.10;;;;;;;;;;4953426;28;20031;-86
2023/05/10 12:59:30;;;;;;;0.20;0.20;;;;;;;;;;4951156;28;21126;-87
2023/05/10 13:05:12;;;;;;;0.20;0.10;;;;;;;;;;4962180;28;20047;-86
2023/05/10 13:08:14;;;;;;;0.20;0.10;;;;;;;;;;4946885;28;20050;-86
2023/05/10 13:11:19;;;;;;;0.20;0.10;;;;;;;;;;4869452;29;20136;-92
2023/05/10 13:17:32;;;;;;;0.40;0.40;;;;;;;;;;4899695;29;20155;-87
2023/05/10 13:19:58;;;;;;;0.20;0.00;;;;;;;;;;4909949;28;20051;-89
2023/05/10 13:29:17;;;;;;;0.20;0.10;;;;;;;;;;4846728;29;20098;-86
2023/05/10 13:32:48;;;;;;;0.20;0.10;;;;;;;;;;4777096;30;20269;-91
2023/05/10 13:35:26;;;;;;;0.57;0.55;;;;;;;;;;4726879;30;20644;-87
2023/05/10 13:41:50;;;;;;;0.20;0.10;;;;;;;;;;4786664;29;20053;-90
2023/05/10 13:44:20;;;;;;;0.20;0.10;;;;;;;;;;4792289;29;20046;-86
2023/05/10 13:49:41;;;;;;;0.20;0.13;;;;;;;;;;4970034;23;20085;-85
2023/05/10 13:52:21;;;;;;;4.97;0.52;;;;;;;;;;4962050;28;20085;-85
2023/05/10 13:54:47;;;;;;;0.43;0.25;;;;;;;;;;4970132;28;20760;-85
2023/05/10 13:57:23;;;;;;;;;;;;;;;;;;;;;
2023/05/10 13:59:50;;;;;;;0.20;0.10;;;;;;;;;;4962882;28;20054;-83
2023/05/10 14:06:02;;;;;;;0.20;0.10;;;;;;;;;;4919326;29;20139;-84
2023/05/10 14:08:28;;;;;;;0.20;0.10;;;;;;;;;;4912512;28;20047;-83
2023/05/10 14:10:57;;;;;;;0.20;0.10;;;;;;;;;;4943039;28;20051;-86
2023/05/10 14:13:24;;;;;;;0.20;0.10;;;;;;;;;;4963376;28;20550;-83
2023/05/10 14:15:51;;;;;;;0.20;0.10;;;;;;;;;;4957877;28;20050;-83
2023/05/10 14:18:17;;;;;;;0.20;0.10;;;;;;;;;;4958588;28;20292;-84
2023/05/10 14:20:49;;;;;;;0.20;0.10;;;;;;;;;;4946422;28;20030;-84
2023/05/10 14:23:15;;;;;;;0.20;0.20;;;;;;;;;;4961384;28;20665;-83
2023/05/10 14:25:44;;;;;;;0.57;0.30;;;;;;;;;;4961047;28;20039;-83
2023/05/10 14:28:12;;;;;;;0.20;0.10;;;;;;;;;;4974645;28;20035;-83
2023/05/10 14:30:38;;;;;;;0.20;0.10;;;;;;;;;;4949652;28;20584;-83
2023/05/10 14:33:04;;;;;;;0.22;0.13;;;;;;;;;;4945220;28;20050;-86
2023/05/10 14:35:30;;;;;;;0.20;0.20;;;;;;;;;;4974559;28;20046;-83
2023/05/10 14:37:57;;;;;;;0.20;0.10;;;;;;;;;;4946880;28;20165;-84
2023/05/10 14:40:23;;;;;;;0.20;0.10;;;;;;;;;;4956630;28;20038;-83
2023/05/10 14:42:53;;;;;;;0.20;0.10;;;;;;;;;;4962411;28;20066;-85
2023/05/10 14:45:19;;;;;;;0.20;0.00;;;;;;;;;;4948161;28;20053;-82
2023/05/10 14:47:45;;;;;;;0.30;0.22;;;;;;;;;;4952064;28;20070;-82
2023/05/10 14:50:32;;;;;;;0.25;0.25;;;;;;;;;;4948207;28;20042;-84
2023/05/10 14:52:58;;;;;;;0.20;0.10;;;;;;;;;;4953679;28;20054;-84
2023/05/10 14:55:25;;;;;;;0.20;0.10;;;;;;;;;;4958932;28;20157;-84
2023/05/10 14:57:54;;;;;;;0.20;0.10;;;;;;;;;;4947258;28;20050;-85
2023/05/10 15:00:23;;;;;;;1.48;0.40;;;;;;;;;;4950280;28;20034;-84
2023/05/10 15:02:57;;;;;;;0.20;0.10;;;;;;;;;;4958283;28;20053;-84
2023/05/10 15:05:23;;;;;;;0.20;0.10;;;;;;;;;;4963240;28;20532;-85
2023/05/10 15:07:49;;;;;;;0.80;0.52;;;;;;;;;;4949935;28;20097;-83
2023/05/10 15:10:55;;;;;;;0.20;0.10;;;;;;;;;;4948389;28;20376;-83
2023/05/10 15:13:41;;;;;;;0.20;0.10;;;;;;;;;;4963036;28;20572;-84
2023/05/10 15:16:16;;;;;;;0.20;0.08;;;;;;;;;;4948086;28;20090;-85
2023/05/10 15:18:51;;;;;;;0.20;0.10;;;;;;;;;;4952187;28;20037;-87
2023/05/10 15:21:34;;;;;;;0.20;0.10;;;;;;;;;;4958300;28;20053;-83
2023/05/10 15:24:00;;;;;;;0.20;0.10;;;;;;;;;;4961895;28;20047;-83
2023/05/10 15:26:35;;;;;;;0.20;0.20;;;;;;;;;;4945612;28;20042;-83
2023/05/10 15:29:19;;;;;;;0.20;0.10;;;;;;;;;;4974486;28;20046;-86
2023/05/10 15:31:49;;;;;;;0.20;0.10;;;;;;;;;;4947973;28;20039;-84
2023/05/10 15:34:16;;;;;;;0.20;0.10;;;;;;;;;;4941635;28;20038;-84
2023/05/10 15:36:42;;;;;;;0.20;0.10;;;;;;;;;;4943868;28;20046;-83
2023/05/10 15:39:21;;;;;;;0.20;0.10;;;;;;;;;;4942183;28;20422;-84
2023/05/10 15:41:50;;;;;;;0.40;0.15;;;;;;;;;;4964495;28;20118;-84
2023/05/10 15:44:18;;;;;;;0.20;0.20;;;;;;;;;;4965537;28;20050;-84
2023/05/10 15:46:46;;;;;;;0.30;0.20;;;;;;;;;;4952131;28;20406;-83
2023/05/10 15:49:12;;;;;;;0.20;0.10;;;;;;;;;;4985247;28;20038;-85
2023/05/10 15:51:44;;;;;;;0.20;0.10;;;;;;;;;;4974687;28;20530;-85
2023/05/10 15:54:10;;;;;;;0.40;0.20;;;;;;;;;;4958811;28;20041;-85
2023/05/10 15:56:37;;;;;;;0.20;0.05;;;;;;;;;;4962881;28;20065;-85
2023/05/10 15:59:04;;;;;;;0.20;0.08;;;;;;;;;;4961180;28;20410;-84
2023/05/10 16:01:31;;;;;;;0.45;0.15;;;;;;;;;;4957317;28;20089;-85
2023/05/10 16:03:57;;;;;;;0.20;0.00;;;;;;;;;;4953758;28;20045;-83
2023/05/10 16:06:23;;;;;;;0.30;0.20;;;;;;;;;;4948795;28;20078;-81
2023/05/10 16:08:49;;;;;;;0.20;0.00;;;;;;;;;;4962278;28;20127;-81
2023/05/10 16:11:16;;;;;;;0.20;0.10;;;;;;;;;;4963691;28;20133;-82
2023/05/10 16:13:42;;;;;;;0.20;0.00;;;;;;;;;;4959912;28;20046;-85
2023/05/10 16:16:08;;;;;;;0.20;0.10;;;;;;;;;;4945115;28;20503;-83
2023/05/10 16:18:34;;;;;;;0.28;0.20;;;;;;;;;;4955715;28;20046;-83
2023/05/10 16:21:01;;;;;;;0.40;0.30;;;;;;;;;;4970196;28;20110;-83
2023/05/10 16:23:27;;;;;;;0.20;0.10;;;;;;;;;;4948736;28;20081;-82
2023/05/10 16:25:53;;;;;;;0.20;0.10;;;;;;;;;;4959755;28;20086;-83
2023/05/10 16:28:20;;;;;;;0.20;0.10;;;;;;;;;;4973525;28;20042;-82
2023/05/10 16:30:46;;;;;;;0.52;0.30;;;;;;;;;;4967607;28;20051;-83
2023/05/10 16:33:12;;;;;;;0.20;0.10;;;;;;;;;;4965621;28;20106;-82
2023/05/10 16:35:42;;;;;;;0.20;0.13;;;;;;;;;;4968502;28;20133;-83
2023/05/10 16:38:08;;;;;;;0.20;0.10;;;;;;;;;;4958372;28;20125;-82
2023/05/10 16:40:34;;;;;;;0.32;0.22;;;;;;;;;;4995056;28;20485;-83
2023/05/10 16:43:00;;;;;;;0.20;0.10;;;;;;;;;;4985794;28;20084;-82
2023/05/10 16:45:26;;;;;;;0.20;0.10;;;;;;;;;;4965178;28;20042;-83
2023/05/10 16:47:55;;;;;;;0.20;0.10;;;;;;;;;;4962952;28;20042;-82
2023/05/10 16:50:21;;;;;;;0.22;0.22;;;;;;;;;;4950485;28;20038;-83
2023/05/10 16:52:47;;;;;;;0.50;0.43;;;;;;;;;;4947329;28;20038;-82
2023/05/10 16:55:13;;;;;;;0.20;0.10;;;;;;;;;;4960355;28;20112;-84
2023/05/10 16:57:41;;;;;;;0.20;0.10;;;;;;;;;;4945407;28;20039;-83
2023/05/10 17:00:07;;;;;;;0.30;0.17;;;;;;;;;;4964497;28;20500;-84
2023/05/10 17:02:36;;;;;;;0.20;0.10;;;;;;;;;;4948977;28;20229;-83
2023/05/10 17:05:02;;;;;;;0.20;0.10;;;;;;;;;;4956931;28;20670;-84
2023/05/10 17:07:28;;;;;;;0.52;0.40;;;;;;;;;;4953992;28;20041;-82
2023/05/10 17:09:55;;;;;;;1.33;0.20;;;;;;;;;;4959386;28;20042;-83
2023/05/10 17:12:21;;;;;;;0.20;0.10;;;;;;;;;;4954255;28;20040;-83
2023/05/10 17:14:47;;;;;;;0.20;0.13;;;;;;;;;;4944199;28;20137;-83
2023/05/10 17:17:13;;;;;;;0.20;0.10;;;;;;;;;;4964557;28;20046;-84
2023/05/10 17:19:43;;;;;;;0.20;0.10;;;;;;;;;;4952086;28;20046;-83
2023/05/10 17:22:13;;;;;;;0.20;0.10;;;;;;;;;;4976767;28;20034;-83
2023/05/10 17:24:39;;;;;;;0.20;0.10;;;;;;;;;;4948878;28;20037;-82
2023/05/10 17:27:05;;;;;;;0.20;0.10;;;;;;;;;;4944800;28;20034;-82
2023/05/10 17:29:31;;;;;;;0.20;0.10;;;;;;;;;;4948123;28;20621;-82
2023/05/10 17:31:58;;;;;;;0.20;0.10;;;;;;;;;;4961331;28;20502;-82
2023/05/10 17:34:24;;;;;;;0.63;0.35;;;;;;;;;;4962581;28;20074;-82
2023/05/10 17:36:52;;;;;;;0.20;0.10;;;;;;;;;;4959089;28;20089;-83
2023/05/10 17:39:24;;;;;;;0.20;0.10;;;;;;;;;;4971581;28;20125;-83
2023/05/10 17:41:50;;;;;;;0.20;0.10;;;;;;;;;;4962449;28;20471;-83
2023/05/10 17:44:19;;;;;;;0.20;0.10;;;;;;;;;;4948066;28;20089;-83
2023/05/10 17:46:45;;;;;;;0.20;0.13;;;;;;;;;;4958206;28;20042;-83
2023/05/10 17:49:11;;;;;;;0.20;0.10;;;;;;;;;;4945700;28;20080;-83
2023/05/10 17:51:40;;;;;;;0.20;0.10;;;;;;;;;;4965981;28;20034;-83
2023/05/10 17:54:06;;;;;;;0.20;0.10;;;;;;;;;;4953026;28;20052;-82
2023/05/10 17:56:38;;;;;;;0.63;0.30;;;;;;;;;;4955548;28;20665;-83
2023/05/10 17:59:04;;;;;;;0.20;0.10;;;;;;;;;;4954182;28;20129;-83
2023/05/10 18:01:30;;;;;;;0.30;0.25;;;;;;;;;;4950627;28;20070;-83
2023/05/10 18:03:56;;;;;;;0.20;0.10;;;;;;;;;;4959071;28;20039;-83
2023/05/10 18:06:25;;;;;;;0.20;0.10;;;;;;;;;;4966322;28;20037;-84
2023/05/10 18:08:54;;;;;;;0.20;0.10;;;;;;;;;;4948436;28;20558;-84
2023/05/10 18:11:20;;;;;;;0.20;0.10;;;;;;;;;;4948561;28;20114;-83
2023/05/10 18:13:46;;;;;;;0.20;0.10;;;;;;;;;;4944233;28;20129;-83
2023/05/10 18:16:15;;;;;;;0.35;0.35;;;;;;;;;;4961834;28;20057;-83
2023/05/10 18:18:42;;;;;;;0.43;0.20;;;;;;;;;;4964567;28;20534;-84
2023/05/10 18:21:08;;;;;;;0.20;0.00;;;;;;;;;;4962435;28;20046;-83
2023/05/10 18:23:36;;;;;;;0.20;0.00;;;;;;;;;;4957190;28;20054;-83
2023/05/10 18:26:02;;;;;;;0.28;0.20;;;;;;;;;;4949695;28;20055;-83
2023/05/10 18:28:35;;;;;;;0.20;0.20;;;;;;;;;;4962723;28;20035;-84
2023/05/10 18:31:05;;;;;;;0.20;0.10;;;;;;;;;;4946258;28;20046;-83
2023/05/10 18:33:42;;;;;;;0.20;0.10;;;;;;;;;;4959494;28;20387;-83
2023/05/10 18:36:10;;;;;;;0.20;0.10;;;;;;;;;;4946476;28;20041;-84
2023/05/10 18:38:36;;;;;;;0.20;0.10;;;;;;;;;;4950508;28;20125;-84
2023/05/10 18:41:06;;;;;;;0.20;0.10;;;;;;;;;;4951256;28;20042;-82
2023/05/10 18:43:51;;;;;;;0.20;0.20;;;;;;;;;;4962470;28;20131;-83
2023/05/10 18:46:17;;;;;;;0.20;0.10;;;;;;;;;;4958092;28;20450;-84
2023/05/10 18:48:46;;;;;;;0.20;0.10;;;;;;;;;;4962276;28;20068;-84
2023/05/10 18:51:38;;;;;;;;;;;;;;;;;;;;;
2023/05/10 18:54:20;;;;;;;0.20;0.20;;;;;;;;;;4961162;28;20084;-84
2023/05/10 18:56:49;;;;;;;0.20;0.10;;;;;;;;;;4959654;28;20779;-83
2023/05/10 18:59:19;;;;;;;0.20;0.10;;;;;;;;;;4947400;28;20130;-85
2023/05/10 19:02:20;;;;;;;0.20;0.10;;;;;;;;;;4955359;28;20061;-84
2023/05/10 19:04:49;;;;;;;0.20;0.10;;;;;;;;;;4957131;28;20113;-84
2023/05/10 19:07:31;;;;;;;0.20;0.10;;;;;;;;;;4966180;28;20042;-84
2023/05/10 19:10:12;;;;;;;0.20;0.10;;;;;;;;;;4974150;28;20039;-84
2023/05/10 19:13:23;;;;;;;0.20;0.10;;;;;;;;;;4962697;28;20066;-84
2023/05/10 19:15:59;;;;;;;0.20;0.10;;;;;;;;;;4955471;28;20046;-83
2023/05/10 19:18:28;;;;;;;0.20;0.05;;;;;;;;;;4959317;28;20073;-83
2023/05/10 19:21:02;;;;;;;0.20;0.10;;;;;;;;;;4964134;28;20048;-83
2023/05/10 19:23:45;;;;;;;0.20;0.10;;;;;;;;;;4959828;28;20120;-83
2023/05/10 19:30:03;;;;;;;0.20;0.10;;;;;;;;;;4973227;28;20054;-84
2023/05/10 19:32:47;;;;;;;0.20;0.20;;;;;;;;;;4952218;28;20054;-85
2023/05/10 19:35:35;;;;;;;0.20;0.10;;;;;;;;;;4946658;28;20042;-84